Time;durP1;ratioP1;P1;durP2;ratioP2;P2;SDS_P1;SDS_P2;PMS_P1;PMS_P2;Temp;Humidity;BMP_temperature;BMP_pressure;BME280_temperature;BME280_humidity;BME280_pressure;Samples;Min_cycle;Max_cycle;Signal;HPM_P1;HPM_P2
2022/08/24 00:00:16;;;;;;;3.47;2.20;;;;;;;21.18;44.59;99589.47;342841;28;1894;-63
2022/08/24 00:00:28;;;;;;;3.97;2.30;;;;;;;21.17;44.78;99582.47;342477;28;1206;-63
2022/08/24 00:00:40;;;;;;;5.47;2.42;;;;;;;21.17;44.59;99582.47;342950;28;1114;-63
2022/08/24 00:00:52;;;;;;;6.65;2.53;;;;;;;21.16;44.74;99586.94;342844;28;1550;-63
2022/08/24 00:01:06;;;;;;;6.13;2.50;;;;;;;21.15;44.93;99579.97;341978;28;1357;-63
2022/08/24 00:01:18;;;;;;;5.35;2.40;;;;;;;21.14;45.12;99584.41;342463;28;1303;-63
2022/08/24 00:01:30;;;;;;;4.88;2.38;;;;;;;21.14;45.39;99584.41;342929;28;1658;-63
2022/08/24 00:01:42;;;;;;;4.82;2.38;;;;;;;21.14;45.12;99587.03;342108;28;1993;-65
2022/08/24 00:01:55;;;;;;;4.25;2.40;;;;;;;21.14;45.23;99581.75;342396;28;1566;-65
2022/08/24 00:02:07;;;;;;;3.20;2.38;;;;;;;21.14;45.03;99579.13;342628;28;1179;-65
2022/08/24 00:02:23;;;;;;;2.80;2.20;;;;;;;21.14;45.30;99579.13;341835;28;1965;-65
2022/08/24 00:02:35;;;;;;;4.82;2.20;;;;;;;21.13;45.63;99588.03;341979;28;1835;-64
2022/08/24 00:02:48;;;;;;;5.35;2.40;;;;;;;21.14;45.79;99584.41;341417;28;1726;-64
2022/08/24 00:03:01;;;;;;;5.60;2.58;;;;;;;21.14;46.20;99588.84;341999;28;1875;-64
2022/08/24 00:03:13;;;;;;;4.03;2.22;;;;;;;21.13;45.53;99593.31;341075;28;1097;-65
2022/08/24 00:03:25;;;;;;;4.05;2.15;;;;;;;21.14;45.59;99594.97;341301;28;1924;-65
2022/08/24 00:03:46;;;;;;;3.38;2.33;;;;;;;21.15;46.27;99591.38;342413;28;1086;-65
2022/08/24 00:03:58;;;;;;;4.07;2.40;;;;;;;21.14;46.22;99594.97;342527;28;1388;-65
2022/08/24 00:04:10;;;;;;;5.60;2.30;;;;;;;21.14;46.56;99594.97;342478;28;1085;-65
2022/08/24 00:04:26;;;;;;;4.53;2.10;;;;;;;21.15;46.43;99588.75;341743;28;1872;-65
2022/08/24 00:04:42;;;;;;;6.10;2.30;;;;;;;21.17;46.32;99587.78;342346;28;2193;-65
2022/08/24 00:05:00;;;;;;;7.15;2.53;;;;;;;21.18;46.18;99586.81;342430;28;1314;-66
2022/08/24 00:05:12;;;;;;;6.70;2.33;;;;;;;21.19;45.87;99585.84;342446;28;1083;-65
2022/08/24 00:05:25;;;;;;;5.35;2.20;;;;;;;21.20;45.92;99588.38;341279;28;2106;-66
2022/08/24 00:05:37;;;;;;;6.60;2.33;;;;;;;21.21;45.77;99590.06;342261;28;1477;-65
2022/08/24 00:05:49;;;;;;;6.93;2.58;;;;;;;21.20;45.98;99587.53;342643;28;1023;-65
2022/08/24 00:06:03;;;;;;;4.97;2.60;;;;;;;21.22;45.82;99591.75;342619;28;1442;-64
2022/08/24 00:06:21;;;;;;;3.95;2.30;;;;;;;21.23;45.97;99588.16;342600;28;1070;-65
2022/08/24 00:06:33;;;;;;;4.75;2.20;;;;;;;21.20;46.01;99587.53;341824;28;2224;-65
2022/08/24 00:06:45;;;;;;;3.95;2.30;;;;;;;21.22;46.15;99588.25;342028;28;2165;-65
2022/08/24 00:06:57;;;;;;;4.72;2.60;;;;;;;21.22;45.76;99582.97;342412;28;1584;-65
2022/08/24 00:07:09;;;;;;;5.07;2.90;;;;;;;21.20;46.18;99583.09;342577;28;1078;-64
2022/08/24 00:07:39;;;;;;;3.75;2.30;;;;;;;21.17;46.40;99596.56;341288;28;1817;-66
2022/08/24 00:07:51;;;;;;;3.33;2.28;;;;;;;21.15;46.78;99591.38;341418;28;1109;-66
2022/08/24 00:08:03;;;;;;;2.80;2.40;;;;;;;21.14;46.19;99594.97;342748;28;1249;-65
2022/08/24 00:08:17;;;;;;;2.60;2.40;;;;;;;21.13;46.26;99592.47;342322;28;1037;-65
2022/08/24 00:08:30;;;;;;;3.35;2.40;;;;;;;21.13;46.45;99581.91;341819;28;2025;-66
2022/08/24 00:08:43;;;;;;;5.10;2.40;;;;;;;21.11;46.68;99589.94;341595;28;1919;-66
2022/08/24 00:08:57;;;;;;;5.50;2.50;;;;;;;21.11;46.88;99589.94;341100;28;1318;-66
2022/08/24 00:09:09;;;;;;;5.63;2.60;;;;;;;21.11;46.67;99592.59;341090;28;1898;-66
2022/08/24 00:09:21;;;;;;;5.65;2.55;;;;;;;21.10;46.29;99587.41;340800;28;1964;-64
2022/08/24 00:09:34;;;;;;;6.03;2.55;;;;;;;21.10;46.43;99588.25;342415;28;2028;-62
2022/08/24 00:09:46;;;;;;;5.38;2.70;;;;;;;21.11;46.24;99587.31;342361;28;1385;-62
2022/08/24 00:10:04;;;;;;;4.47;2.50;;;;;;;21.13;46.64;99590.66;343332;28;1459;-62
2022/08/24 00:10:19;;;;;;;3.28;2.22;;;;;;;21.12;46.52;99583.69;343237;28;1212;-62
2022/08/24 00:10:31;;;;;;;3.33;2.42;;;;;;;21.15;46.29;99591.38;341980;28;1688;-62
2022/08/24 00:10:43;;;;;;;3.80;2.50;;;;;;;21.18;46.02;99586.81;341707;28;2185;-62
2022/08/24 00:10:55;;;;;;;3.55;2.33;;;;;;;21.19;45.59;99581.41;342004;28;1173;-63
2022/08/24 00:11:08;;;;;;;3.78;2.30;;;;;;;21.20;45.35;99587.53;343447;28;1288;-63
2022/08/24 00:11:20;;;;;;;3.40;2.20;;;;;;;21.18;45.71;99592.94;343873;28;1197;-64
2022/08/24 00:11:33;;;;;;;5.03;2.22;;;;;;;21.19;45.85;99591.13;342393;28;1907;-64
2022/08/24 00:11:46;;;;;;;7.05;2.30;;;;;;;21.18;45.49;99590.31;342650;28;1324;-63
2022/08/24 00:11:59;;;;;;;6.72;2.40;;;;;;;21.18;45.32;99584.19;342404;28;1235;-64
2022/08/24 00:12:13;;;;;;;3.10;2.40;;;;;;;21.20;45.57;99587.53;342231;28;1301;-63
2022/08/24 00:12:27;;;;;;;3.30;2.40;;;;;;;21.21;45.27;99589.22;341940;28;2056;-64
2022/08/24 00:12:39;;;;;;;4.30;2.40;;;;;;;21.22;45.21;99585.63;341648;28;1880;-64
2022/08/24 00:12:51;;;;;;;4.50;2.40;;;;;;;21.21;45.13;99590.06;341137;28;1816;-63
2022/08/24 00:13:04;;;;;;;4.32;2.40;;;;;;;21.20;45.80;99582.25;342149;28;1310;-63
2022/08/24 00:13:17;;;;;;;4.57;2.50;;;;;;;21.18;45.87;99587.66;342561;28;1318;-63
2022/08/24 00:13:29;;;;;;;5.65;2.58;;;;;;;21.17;45.66;99590.41;341520;28;1906;-63
2022/08/24 00:13:45;;;;;;;4.80;2.50;;;;;;;21.17;45.97;99593.06;341541;28;1456;-64
2022/08/24 00:13:57;;;;;;;2.78;2.38;;;;;;;21.14;46.03;99587.03;341270;28;1241;-63
2022/08/24 00:14:10;;;;;;;2.67;2.33;;;;;;;21.12;45.90;99586.31;342494;28;1198;-63
2022/08/24 00:14:22;;;;;;;3.70;2.40;;;;;;;21.12;46.19;99586.31;342191;28;1892;-63
2022/08/24 00:14:34;;;;;;;4.20;2.40;;;;;;;21.10;46.83;99593.53;342350;28;1621;-63
2022/08/24 00:14:46;;;;;;;3.75;2.35;;;;;;;21.06;46.34;99589.44;341800;28;1777;-63
2022/08/24 00:15:00;;;;;;;3.90;2.30;;;;;;;21.09;46.69;99591.88;342448;28;1325;-63
2022/08/24 00:15:13;;;;;;;4.85;2.33;;;;;;;21.11;46.52;99587.31;341980;28;1844;-63
2022/08/24 00:15:25;;;;;;;4.40;2.40;;;;;;;21.12;46.25;99586.31;341119;28;1028;-63
2022/08/24 00:15:38;;;;;;;4.13;2.33;;;;;;;21.12;45.84;99586.31;341113;28;1051;-63
2022/08/24 00:15:51;;;;;;;4.68;2.40;;;;;;;21.12;46.00;99586.31;342197;28;1179;-63
2022/08/24 00:16:04;;;;;;;4.13;2.60;;;;;;;21.15;45.37;99580.81;342402;28;1317;-63
2022/08/24 00:16:17;;;;;;;4.22;2.50;;;;;;;21.17;45.33;99587.78;342575;28;1205;-63
2022/08/24 00:16:29;;;;;;;4.60;2.50;;;;;;;21.18;45.01;99584.19;341373;28;2016;-63
2022/08/24 00:16:41;;;;;;;4.40;2.30;;;;;;;21.15;45.15;99588.75;342298;28;1596;-63
2022/08/24 00:16:53;;;;;;;4.40;2.30;;;;;;;21.17;45.05;99590.41;342517;28;1233;-63
2022/08/24 00:17:06;;;;;;;4.80;2.30;;;;;;;21.15;45.13;99591.38;341505;28;1183;-63
2022/08/24 00:17:19;;;;;;;4.13;2.33;;;;;;;21.14;45.06;99583.56;341136;28;1193;-63
2022/08/24 00:17:33;;;;;;;4.05;2.30;;;;;;;21.12;45.04;99588.13;343658;28;1612;-63
2022/08/24 00:17:45;;;;;;;2.85;2.30;;;;;;;21.09;45.18;99586.56;343256;28;1055;-63
2022/08/24 00:17:57;;;;;;;3.58;2.42;;;;;;;21.07;45.44;99585.03;343340;28;1210;-63
2022/08/24 00:18:09;;;;;;;3.70;2.33;;;;;;;21.03;45.22;99584.41;342674;28;1938;-63
2022/08/24 00:18:22;;;;;;;5.55;2.45;;;;;;;21.04;45.57;99583.44;342562;28;1792;-63
2022/08/24 00:18:35;;;;;;;6.72;2.38;;;;;;;21.04;45.68;99593.19;343277;28;1713;-63
2022/08/24 00:18:47;;;;;;;5.75;2.40;;;;;;;21.02;45.97;99585.34;342228;28;1015;-63
2022/08/24 00:18:59;;;;;;;6.10;2.50;;;;;;;21.03;45.77;99581.78;343264;28;1227;-63
2022/08/24 00:19:12;;;;;;;4.65;2.40;;;;;;;21.03;46.07;99587.06;343647;28;1158;-63
2022/08/24 00:19:24;;;;;;;3.95;2.42;;;;;;;21.02;46.04;99582.72;343576;28;1889;-63
2022/08/24 00:19:37;;;;;;;3.28;2.55;;;;;;;21.03;45.77;99579.13;342763;28;1941;-63
2022/08/24 00:19:49;;;;;;;3.72;2.40;;;;;;;21.04;45.79;99583.44;342344;28;1247;-63
2022/08/24 00:20:03;;;;;;;3.67;2.30;;;;;;;21.05;45.53;99579.00;344100;28;1283;-63
2022/08/24 00:20:16;;;;;;;3.67;2.40;;;;;;;21.03;45.18;99584.41;344659;28;1027;-63
2022/08/24 00:20:28;;;;;;;3.53;2.47;;;;;;;20.98;45.20;99583.91;343324;28;2094;-63
2022/08/24 00:20:40;;;;;;;3.60;2.50;;;;;;;21.00;45.09;99581.16;342817;28;1903;-63
2022/08/24 00:20:56;;;;;;;3.25;2.40;;;;;;;20.98;45.33;99583.91;343024;28;1741;-63
2022/08/24 00:21:08;;;;;;;2.72;2.40;;;;;;;20.97;45.43;99582.25;341281;28;1928;-63
2022/08/24 00:21:20;;;;;;;2.50;2.30;;;;;;;20.92;45.70;99579.09;341481;28;2133;-63
2022/08/24 00:21:32;;;;;;;2.42;2.22;;;;;;;20.92;45.42;99579.09;342520;28;1771;-63
2022/08/24 00:21:44;;;;;;;4.05;2.28;;;;;;;20.84;45.43;99576.22;342238;28;1281;-63
2022/08/24 00:21:56;;;;;;;5.18;2.30;;;;;;;20.78;45.54;99576.69;342314;28;1769;-63
2022/08/24 00:22:08;;;;;;;5.28;2.38;;;;;;;20.73;45.92;99575.22;342418;28;1501;-63
2022/08/24 00:22:21;;;;;;;3.47;2.22;;;;;;;20.64;45.96;99573.28;342265;28;959;-63
2022/08/24 00:22:33;;;;;;;3.88;2.25;;;;;;;20.65;45.99;99580.25;342273;28;1809;-63
2022/08/24 00:22:45;;;;;;;4.47;2.22;;;;;;;20.61;46.23;99576.16;342019;28;1059;-63
2022/08/24 00:22:57;;;;;;;4.05;2.38;;;;;;;20.54;46.27;99573.13;342456;28;1297;-63
2022/08/24 00:23:09;;;;;;;3.53;2.40;;;;;;;20.53;46.41;99578.50;342530;28;1275;-63
2022/08/24 00:23:21;;;;;;;4.03;2.30;;;;;;;20.43;46.61;99575.72;342341;28;1979;-63
2022/08/24 00:23:34;;;;;;;6.18;2.30;;;;;;;20.42;46.59;99578.47;342276;28;1839;-63
2022/08/24 00:23:47;;;;;;;7.65;2.55;;;;;;;20.40;46.71;99575.94;342512;28;1028;-63
2022/08/24 00:23:59;;;;;;;5.72;2.50;;;;;;;20.39;46.71;99576.06;342137;28;1288;-63
2022/08/24 00:24:14;;;;;;;4.63;2.60;;;;;;;20.37;46.92;99577.97;340898;28;1475;-63
2022/08/24 00:24:26;;;;;;;4.85;2.78;;;;;;;20.30;46.99;99573.16;340920;28;1734;-64
2022/08/24 00:24:39;;;;;;;5.20;2.53;;;;;;;20.28;47.08;99571.56;342404;28;1911;-63
2022/08/24 00:24:51;;;;;;;3.95;2.50;;;;;;;20.26;47.09;99571.69;342502;28;1293;-63
2022/08/24 00:25:04;;;;;;;3.70;2.40;;;;;;;20.24;47.04;99573.63;342020;28;1362;-63
2022/08/24 00:25:18;;;;;;;3.80;2.38;;;;;;;20.24;46.98;99568.34;342082;28;1234;-63
2022/08/24 00:25:30;;;;;;;3.95;2.40;;;;;;;20.23;47.12;99577.19;340573;28;2029;-63
2022/08/24 00:25:42;;;;;;;3.97;2.40;;;;;;;20.20;47.17;99574.75;342114;28;1576;-63
2022/08/24 00:25:54;;;;;;;4.70;2.55;;;;;;;20.23;47.03;99573.72;341698;28;2213;-63
2022/08/24 00:26:07;;;;;;;5.00;2.50;;;;;;;20.23;47.05;99576.34;341967;28;1258;-63
2022/08/24 00:26:19;;;;;;;6.63;2.67;;;;;;;20.25;46.91;99574.44;342318;28;1686;-63
2022/08/24 00:26:40;;;;;;;5.25;2.67;;;;;;;20.23;46.94;99574.56;342530;28;1707;-63
2022/08/24 00:26:53;;;;;;;3.33;2.40;;;;;;;20.19;47.28;99575.75;341923;28;1214;-63
2022/08/24 00:27:06;;;;;;;4.43;2.47;;;;;;;20.19;47.22;99574.91;342395;28;1778;-63
2022/08/24 00:27:18;;;;;;;4.90;2.58;;;;;;;20.14;47.68;99572.59;342625;28;1074;-63
2022/08/24 00:27:30;;;;;;;4.10;2.40;;;;;;;20.16;47.33;99575.94;341834;28;1562;-63
2022/08/24 00:27:42;;;;;;;3.45;2.50;;;;;;;20.16;47.37;99575.94;342157;28;1619;-63
2022/08/24 00:27:54;;;;;;;3.20;2.50;;;;;;;20.14;47.57;99577.84;342593;28;1305;-63
2022/08/24 00:28:06;;;;;;;3.47;2.42;;;;;;;20.14;47.56;99573.44;341909;28;1467;-63
2022/08/24 00:28:18;;;;;;;3.40;2.42;;;;;;;20.13;47.34;99577.03;342329;28;1045;-63
2022/08/24 00:28:31;;;;;;;3.15;2.40;;;;;;;20.14;47.54;99575.22;342521;28;1120;-63
2022/08/24 00:28:43;;;;;;;5.05;2.47;;;;;;;20.11;47.64;99578.94;342201;28;1720;-63
2022/08/24 00:28:58;;;;;;;5.03;2.40;;;;;;;20.12;47.79;99574.50;342378;28;1375;-63
2022/08/24 00:29:10;;;;;;;3.95;2.55;;;;;;;20.12;47.58;99585.03;342529;28;1051;-65
2022/08/24 00:29:23;;;;;;;4.50;2.60;;;;;;;20.13;47.97;99577.03;341099;28;1862;-66
2022/08/24 00:29:35;;;;;;;4.78;2.50;;;;;;;20.12;47.70;99575.34;342365;28;1769;-66
2022/08/24 00:29:48;;;;;;;4.05;2.30;;;;;;;20.12;47.96;99574.50;341740;28;1623;-66
2022/08/24 00:30:00;;;;;;;2.90;2.40;;;;;;;20.11;47.95;99572.81;342600;28;1716;-65
2022/08/24 00:30:16;;;;;;;3.58;2.63;;;;;;;20.11;47.97;99581.56;341969;28;2011;-66
2022/08/24 00:30:28;;;;;;;4.03;2.60;;;;;;;20.14;47.88;99583.13;341294;28;1306;-65
2022/08/24 00:30:41;;;;;;;4.17;2.50;;;;;;;20.14;48.12;99573.44;340879;28;1284;-66
2022/08/24 00:30:53;;;;;;;4.77;2.47;;;;;;;20.13;48.29;99576.19;342226;28;1262;-65
2022/08/24 00:31:05;;;;;;;4.80;2.43;;;;;;;20.17;47.95;99577.66;343334;28;1237;-66
2022/08/24 00:31:19;;;;;;;3.88;2.47;;;;;;;20.20;47.89;99576.56;342335;28;2107;-65
2022/08/24 00:31:32;;;;;;;4.50;2.50;;;;;;;20.22;47.99;99579.94;341341;28;2034;-65
2022/08/24 00:31:44;;;;;;;4.40;2.45;;;;;;;20.24;48.25;99573.63;341244;28;2219;-65
2022/08/24 00:31:56;;;;;;;4.20;2.50;;;;;;;20.26;48.42;99581.41;342361;28;3470;-65
2022/08/24 00:32:08;;;;;;;4.13;2.50;;;;;;;20.25;48.53;99577.09;342086;28;2011;-66
2022/08/24 00:32:20;;;;;;;4.50;2.40;;;;;;;20.25;48.64;99570.00;343097;28;1805;-65
2022/08/24 00:32:32;;;;;;;4.10;2.33;;;;;;;20.26;48.69;99576.97;342150;28;1201;-66
2022/08/24 00:32:46;;;;;;;3.60;2.40;;;;;;;20.27;49.17;99577.81;341749;28;1714;-66
2022/08/24 00:32:59;;;;;;;3.33;2.50;;;;;;;20.27;48.71;99573.38;343279;28;1305;-66
2022/08/24 00:33:11;;;;;;;3.58;2.42;;;;;;;20.26;48.72;99579.63;342340;28;1083;-66
2022/08/24 00:33:23;;;;;;;3.60;2.33;;;;;;;20.27;48.56;99578.66;341869;28;1774;-66
2022/08/24 00:33:35;;;;;;;4.50;2.30;;;;;;;20.29;48.40;99576.75;343204;28;1789;-66
2022/08/24 00:33:47;;;;;;;5.43;2.67;;;;;;;20.29;48.50;99576.75;342737;28;1698;-66
2022/08/24 00:33:59;;;;;;;5.78;2.85;;;;;;;20.28;48.43;99580.34;342831;28;1882;-66
2022/08/24 00:34:12;;;;;;;5.32;2.80;;;;;;;20.31;48.42;99582.75;343793;28;1058;-65
2022/08/24 00:34:26;;;;;;;5.55;2.60;;;;;;;20.32;48.36;99581.81;342142;28;1980;-66
2022/08/24 00:34:38;;;;;;;7.38;2.75;;;;;;;20.32;48.50;99579.16;341477;28;1896;-66
2022/08/24 00:34:55;;;;;;;6.00;2.90;;;;;;;20.34;48.19;99585.16;341840;28;1348;-66
2022/08/24 00:35:10;;;;;;;3.97;2.67;;;;;;;20.35;48.22;99581.56;343568;28;1059;-66
2022/08/24 00:35:23;;;;;;;5.20;2.55;;;;;;;20.38;48.17;99582.28;343470;28;2029;-66
2022/08/24 00:35:35;;;;;;;5.43;2.53;;;;;;;20.37;48.60;99580.63;343263;28;1762;-66
2022/08/24 00:35:47;;;;;;;3.00;2.33;;;;;;;20.37;48.73;99577.97;344057;28;1316;-66
2022/08/24 00:36:00;;;;;;;2.53;2.10;;;;;;;20.38;48.82;99584.94;344183;28;1136;-65
2022/08/24 00:36:11;;;;;;;3.30;2.28;;;;;;;20.38;48.84;99579.66;344465;28;1144;-65
2022/08/24 00:36:24;;;;;;;3.63;2.55;;;;;;;20.38;48.84;99574.38;341902;28;1802;-66
2022/08/24 00:36:36;;;;;;;4.13;2.60;;;;;;;20.39;48.89;99584.00;342010;28;1671;-66
2022/08/24 00:36:48;;;;;;;4.18;2.60;;;;;;;20.40;48.53;99577.72;342083;28;1068;-66
2022/08/24 00:37:00;;;;;;;4.10;2.42;;;;;;;20.40;48.61;99583.84;342343;28;1212;-66
2022/08/24 00:37:12;;;;;;;4.10;2.40;;;;;;;20.40;48.54;99583.00;342126;28;1643;-66
2022/08/24 00:37:24;;;;;;;5.60;2.53;;;;;;;20.41;48.29;99584.72;341510;28;1905;-65
2022/08/24 00:37:37;;;;;;;4.70;2.47;;;;;;;20.41;48.32;99584.72;341545;28;1658;-65
2022/08/24 00:37:50;;;;;;;4.05;2.40;;;;;;;20.42;48.53;99586.38;341491;28;1263;-66
2022/08/24 00:38:02;;;;;;;4.45;2.38;;;;;;;20.41;48.27;99590.00;343208;28;1199;-66
2022/08/24 00:38:15;;;;;;;3.80;2.50;;;;;;;20.42;48.16;99586.38;343642;28;1091;-66
2022/08/24 00:38:27;;;;;;;4.00;2.50;;;;;;;20.42;48.38;99586.38;341947;28;1993;-66
2022/08/24 00:38:41;;;;;;;4.15;2.40;;;;;;;20.42;48.57;99591.66;341483;28;2100;-66
2022/08/24 00:38:53;;;;;;;4.63;2.42;;;;;;;20.42;48.43;99586.38;341946;28;1408;-65
2022/08/24 00:39:07;;;;;;;4.05;2.45;;;;;;;20.43;48.34;99594.19;342413;28;1867;-66
2022/08/24 00:39:19;;;;;;;4.18;2.40;;;;;;;20.44;48.36;99589.75;342350;28;1123;-66
2022/08/24 00:39:31;;;;;;;4.30;2.60;;;;;;;20.45;48.24;99591.44;340608;28;1963;-66
2022/08/24 00:39:43;;;;;;;5.20;2.63;;;;;;;20.46;48.20;99595.75;341587;28;1361;-65
2022/08/24 00:39:56;;;;;;;5.03;2.53;;;;;;;20.45;48.25;99596.72;341146;28;1203;-66
2022/08/24 00:40:12;;;;;;;4.18;2.42;;;;;;;20.48;48.03;99596.47;343768;28;1023;-66
2022/08/24 00:40:37;;;;;;;4.05;2.42;;;;;;;20.47;48.43;99600.09;342023;28;1800;-66
2022/08/24 00:40:49;;;;;;;7.13;2.50;;;;;;;20.49;48.30;99598.19;341089;28;1176;-66
2022/08/24 00:41:02;;;;;;;6.53;2.53;;;;;;;20.47;48.24;99600.09;341478;28;1552;-66
2022/08/24 00:41:15;;;;;;;5.85;2.95;;;;;;;20.45;48.49;99596.72;341787;28;2105;-66
2022/08/24 00:41:28;;;;;;;6.78;3.03;;;;;;;20.46;48.32;99601.03;342062;28;1914;-66
2022/08/24 00:41:45;;;;;;;4.97;2.90;;;;;;;20.47;48.12;99594.81;342235;28;1948;-66
2022/08/24 00:41:57;;;;;;;3.58;2.60;;;;;;;20.47;48.17;99597.47;343748;28;1301;-66
2022/08/24 00:42:10;;;;;;;5.15;2.83;;;;;;;20.49;48.32;99603.47;343029;28;1890;-65
2022/08/24 00:42:23;;;;;;;5.22;2.72;;;;;;;20.50;48.22;99589.28;343526;28;1006;-65
2022/08/24 00:42:35;;;;;;;5.40;2.90;;;;;;;20.53;47.90;99597.00;343314;28;1775;-66
2022/08/24 00:42:47;;;;;;;5.28;3.10;;;;;;;20.53;47.76;99589.06;343195;28;1167;-66
2022/08/24 00:43:03;;;;;;;5.43;2.70;;;;;;;20.53;47.68;99594.34;343351;28;1381;-66
2022/08/24 00:43:22;;;;;;;6.28;2.75;;;;;;;20.51;48.03;99597.09;342816;28;1746;-65
2022/08/24 00:43:34;;;;;;;4.07;2.65;;;;;;;20.54;47.49;99590.75;342436;28;1610;-66
2022/08/24 00:43:55;;;;;;;4.72;2.67;;;;;;;20.54;47.19;99591.59;341811;28;1065;-65
2022/08/24 00:44:07;;;;;;;5.47;2.80;;;;;;;20.55;47.19;99587.16;343943;28;1548;-66
2022/08/24 00:44:19;;;;;;;4.30;2.80;;;;;;;20.56;47.32;99583.53;343789;28;1187;-65
2022/08/24 00:44:32;;;;;;;4.32;2.70;;;;;;;20.58;47.31;99592.19;341397;28;1760;-66
2022/08/24 00:44:44;;;;;;;5.10;2.70;;;;;;;20.58;47.25;99597.47;342087;28;1800;-66
2022/08/24 00:44:57;;;;;;;5.47;2.58;;;;;;;20.60;46.95;99595.59;342417;28;1191;-66
2022/08/24 00:45:12;;;;;;;5.07;2.63;;;;;;;20.64;47.30;99589.13;341676;28;2140;-66
2022/08/24 00:45:24;;;;;;;4.40;2.50;;;;;;;20.64;47.34;99589.13;341094;28;1720;-65
2022/08/24 00:45:45;;;;;;;4.38;2.78;;;;;;;20.64;47.30;99594.41;342390;28;1051;-66
2022/08/24 00:46:16;;;;;;;4.47;2.65;;;;;;;20.68;47.36;99590.56;342817;28;1378;-65
2022/08/24 00:46:53;;;;;;;5.40;2.70;;;;;;;20.70;47.71;99588.66;341400;28;2190;-66
2022/08/24 00:47:21;;;;;;;3.75;2.60;;;;;;;20.65;47.68;99582.91;342491;28;1083;-64
2022/08/24 00:47:43;;;;;;;5.70;2.65;;;;;;;20.69;47.50;99584.34;342158;28;1546;-66
2022/08/24 00:48:04;;;;;;;4.30;2.80;;;;;;;20.70;47.04;99583.38;342229;28;1665;-66
2022/08/24 00:48:27;;;;;;;4.45;2.50;;;;;;;20.67;47.10;99580.97;341419;28;2150;-66
2022/08/24 00:48:46;;;;;;;4.63;2.50;;;;;;;20.69;47.49;99584.34;343415;28;1845;-66
2022/08/24 00:49:05;;;;;;;4.78;2.70;;;;;;;20.71;47.49;99582.44;343556;28;1360;-66
2022/08/24 00:49:26;;;;;;;3.50;2.70;;;;;;;20.72;47.41;99584.09;342200;28;1664;-66
2022/08/24 00:49:43;;;;;;;3.00;2.60;;;;;;;20.71;47.30;99587.72;342980;28;1210;-66
2022/08/24 00:50:07;;;;;;;4.35;2.58;;;;;;;20.70;47.71;99586.00;343336;28;1270;-66
2022/08/24 00:50:55;;;;;;;4.57;2.50;;;;;;;20.71;47.14;99592.16;343409;28;1071;-65
2022/08/24 00:51:24;;;;;;;3.63;2.50;;;;;;;20.77;47.39;99593.50;341290;28;2349;-65
2022/08/24 00:51:46;;;;;;;4.43;2.70;;;;;;;20.77;47.88;99590.84;341981;28;2285;-65
2022/08/24 00:52:07;;;;;;;2.67;2.40;;;;;;;20.80;47.43;99593.25;342335;28;1538;-64
2022/08/24 00:52:28;;;;;;;3.65;2.50;;;;;;;20.79;47.52;99591.59;341961;28;1956;-64
2022/08/24 00:52:58;;;;;;;3.90;2.50;;;;;;;20.82;47.03;99588.69;341846;28;1952;-64
2022/08/24 00:53:15;;;;;;;3.97;2.50;;;;;;;20.81;47.16;99589.66;342123;28;1050;-65
2022/08/24 00:53:36;;;;;;;4.78;2.50;;;;;;;20.83;47.07;99590.38;341796;28;1893;-65
2022/08/24 00:53:52;;;;;;;3.22;2.50;;;;;;;20.81;47.19;99592.31;342303;28;1287;-64
2022/08/24 00:54:09;;;;;;;3.15;2.60;;;;;;;20.86;46.83;99595.44;342294;28;1182;-65
2022/08/24 00:54:25;;;;;;;3.80;2.60;;;;;;;20.84;47.35;99587.59;342398;28;1083;-64
2022/08/24 00:54:43;;;;;;;3.35;2.50;;;;;;;20.83;47.39;99582.47;341310;28;1910;-65
2022/08/24 00:55:11;;;;;;;2.88;2.60;;;;;;;20.86;47.06;99590.13;341471;28;1251;-65
2022/08/24 00:55:31;;;;;;;3.63;2.63;;;;;;;20.89;47.08;99579.34;341273;28;1032;-65
2022/08/24 00:55:58;;;;;;;4.70;2.55;;;;;;;20.91;47.09;99588.00;341800;28;1407;-65
2022/08/24 00:56:16;;;;;;;3.80;2.75;;;;;;;20.92;46.78;99584.38;342656;28;1257;-62
2022/08/24 00:56:33;;;;;;;4.43;2.70;;;;;;;20.92;47.11;99594.94;341442;28;2032;-62
2022/08/24 00:56:53;;;;;;;5.00;2.65;;;;;;;20.96;46.98;99585.81;341682;28;1958;-62
2022/08/24 00:57:09;;;;;;;5.30;2.60;;;;;;;20.97;47.09;99584.03;343728;28;1500;-63
2022/08/24 00:57:26;;;;;;;4.65;2.53;;;;;;;20.97;47.11;99582.25;341899;28;1805;-63
2022/08/24 00:57:41;;;;;;;4.60;2.53;;;;;;;20.98;46.76;99583.06;341876;28;1015;-61
2022/08/24 00:57:58;;;;;;;4.38;2.60;;;;;;;20.98;47.56;99585.72;342715;28;1035;-62
2022/08/24 00:58:21;;;;;;;3.15;2.80;;;;;;;20.97;47.35;99581.38;342338;28;1224;-63
2022/08/24 00:58:37;;;;;;;3.75;2.80;;;;;;;20.97;47.61;99587.53;341950;28;1734;-64
2022/08/24 00:58:59;;;;;;;3.95;2.50;;;;;;;20.98;47.25;99586.56;341048;28;1214;-64
2022/08/24 00:59:21;;;;;;;4.65;2.45;;;;;;;20.99;47.00;99585.59;341671;28;1891;-63
2022/08/24 00:59:37;;;;;;;3.05;2.40;;;;;;;20.98;47.54;99583.91;343790;28;1087;-64
2022/08/24 00:59:54;;;;;;;2.60;2.40;;;;;;;20.98;47.74;99583.91;343267;28;1023;-63
2022/08/24 01:00:11;;;;;;;3.67;2.60;;;;;;;21.01;47.38;99588.97;342201;28;1948;-64
2022/08/24 01:00:27;;;;;;;4.50;2.45;;;;;;;21.01;47.31;99586.34;342762;28;1279;-64
2022/08/24 01:00:44;;;;;;;3.70;2.28;;;;;;;21.02;47.20;99588.00;342206;28;1025;-62
2022/08/24 01:01:04;;;;;;;3.33;2.47;;;;;;;21.03;47.20;99587.06;343492;28;1492;-63
2022/08/24 01:01:17;;;;;;;3.90;2.53;;;;;;;21.04;47.39;99590.53;343710;28;1145;-63
2022/08/24 01:01:32;;;;;;;3.75;2.50;;;;;;;21.04;46.91;99583.44;342431;28;1889;-64
2022/08/24 01:01:45;;;;;;;4.50;2.65;;;;;;;21.04;46.89;99591.38;342267;28;1913;-62
2022/08/24 01:02:04;;;;;;;3.83;2.53;;;;;;;21.06;46.99;99588.59;342159;28;1549;-62
2022/08/24 01:02:31;;;;;;;3.70;2.60;;;;;;;21.06;46.91;99592.09;341895;28;1892;-62
2022/08/24 01:02:47;;;;;;;4.93;2.60;;;;;;;21.08;46.86;99584.88;341490;28;1083;-63
2022/08/24 01:03:03;;;;;;;3.92;2.53;;;;;;;21.07;47.24;99588.50;342476;28;1369;-63
2022/08/24 01:03:16;;;;;;;4.40;2.55;;;;;;;21.08;47.22;99584.03;342426;28;1259;-63
2022/08/24 01:03:28;;;;;;;5.13;2.72;;;;;;;21.10;47.17;99592.69;341209;28;1823;-63
2022/08/24 01:03:45;;;;;;;4.68;2.60;;;;;;;21.09;47.26;99586.56;341597;28;1869;-63
2022/08/24 01:03:58;;;;;;;3.95;2.50;;;;;;;21.10;47.20;99587.41;342321;28;1199;-63
2022/08/24 01:04:17;;;;;;;3.03;2.67;;;;;;;21.11;47.11;99589.94;343769;28;1055;-62
2022/08/24 01:04:47;;;;;;;4.05;2.67;;;;;;;21.12;47.10;99596.06;341943;28;1949;-62
2022/08/24 01:05:04;;;;;;;4.03;2.70;;;;;;;21.11;47.46;99584.66;342321;28;1715;-63
2022/08/24 01:05:17;;;;;;;5.15;2.90;;;;;;;21.13;47.05;99588.03;342457;28;1334;-62
2022/08/24 01:05:32;;;;;;;5.03;2.78;;;;;;;21.15;47.04;99591.38;342409;28;2493;-63
2022/08/24 01:05:45;;;;;;;3.83;2.50;;;;;;;21.15;47.29;99591.38;341886;28;1909;-62
2022/08/24 01:05:59;;;;;;;3.00;2.50;;;;;;;21.17;46.95;99588.63;343074;28;1258;-62
2022/08/24 01:06:12;;;;;;;3.35;2.67;;;;;;;21.15;47.02;99593.19;342179;28;937;-64
2022/08/24 01:06:24;;;;;;;3.30;2.70;;;;;;;21.14;47.10;99594.97;342189;28;1882;-63
2022/08/24 01:06:37;;;;;;;3.58;2.60;;;;;;;21.15;47.04;99594.03;342295;28;1760;-63
2022/08/24 01:06:49;;;;;;;3.78;2.42;;;;;;;21.15;47.26;99586.09;342345;28;1190;-63
2022/08/24 01:07:01;;;;;;;4.15;2.40;;;;;;;21.15;46.87;99596.69;342436;28;1367;-63
2022/08/24 01:07:14;;;;;;;3.17;2.42;;;;;;;21.17;46.95;99587.78;341559;28;1713;-63
2022/08/24 01:07:30;;;;;;;4.35;2.58;;;;;;;21.17;46.80;99587.78;341601;28;1734;-63
2022/08/24 01:07:42;;;;;;;5.45;2.60;;;;;;;21.20;46.80;99585.72;342657;28;1953;-63
2022/08/24 01:07:54;;;;;;;4.78;2.58;;;;;;;21.20;46.98;99593.66;343865;28;1046;-62
2022/08/24 01:08:09;;;;;;;3.85;2.65;;;;;;;21.21;47.07;99594.50;343321;28;1913;-62
2022/08/24 01:08:22;;;;;;;4.10;2.70;;;;;;;21.19;46.99;99586.72;342774;28;1875;-62
2022/08/24 01:08:35;;;;;;;3.97;2.60;;;;;;;21.15;47.11;99586.09;342315;28;1958;-62
2022/08/24 01:08:47;;;;;;;3.75;2.60;;;;;;;21.08;46.75;99589.34;342760;28;1274;-63
2022/08/24 01:09:07;;;;;;;3.85;2.58;;;;;;;21.04;47.11;99583.44;341443;28;2168;-63
2022/08/24 01:09:21;;;;;;;5.07;2.70;;;;;;;21.08;46.99;99590.16;340919;28;1075;-62
2022/08/24 01:09:33;;;;;;;5.85;2.58;;;;;;;21.12;47.27;99581.03;341911;28;1901;-63
2022/08/24 01:09:45;;;;;;;4.90;2.42;;;;;;;21.13;47.76;99582.75;342343;28;1877;-63
2022/08/24 01:10:02;;;;;;;5.80;2.58;;;;;;;21.16;47.40;99586.94;342133;28;1963;-62
2022/08/24 01:10:18;;;;;;;4.25;2.55;;;;;;;21.18;47.69;99589.47;342561;28;1056;-63
2022/08/24 01:10:36;;;;;;;3.03;2.50;;;;;;;21.21;46.89;99589.22;341945;28;2166;-63